Time;durP1;ratioP1;P1;durP2;ratioP2;P2;SDS_P1;SDS_P2;PMS_P1;PMS_P2;Temp;Humidity;BMP_temperature;BMP_pressure;BME280_temperature;BME280_humidity;BME280_pressure;Samples;Min_cycle;Max_cycle;Signal;HPM_P1;HPM_P2
2023/01/13 19:31:06;;;;;;;;;;;12.20;99.90;;;;;;2614162;54;19942;-62
2023/01/13 19:33:36;;;;;;;;;;;9.50;99.90;;;;;;2614876;54;19993;-62
2023/01/13 19:36:08;;;;;;;;;;;9.40;99.90;;;;;;2614784;47;19951;-62
2023/01/13 19:38:38;;;;;;;;;;;9.40;99.90;;;;;;2615116;54;19953;-63
2023/01/13 19:45:25;;;;;;;;;;;9.40;99.90;;;;;;2615182;54;20122;-64
2023/01/13 19:46:45;;;;;;;;;;;9.40;99.90;;;;;;2614875;39;20453;-61
2023/01/13 19:49:15;;;;;;;;;;;9.30;99.90;;;;;;2615954;39;20468;-62
2023/01/13 19:51:45;;;;;;;;;;;9.30;99.90;;;;;;2615875;54;19947;-63
2023/01/13 19:54:15;;;;;;;;;;;9.30;99.90;;;;;;2614964;54;19952;-61
2023/01/13 19:56:44;;;;;;;;;;;9.40;99.90;;;;;;2615811;54;19954;-62
2023/01/13 19:59:17;;;;;;;;;;;9.40;99.90;;;;;;2615764;47;20066;-62
2023/01/13 20:01:51;;;;;;;;;;;9.30;99.90;;;;;;2616348;54;19973;-63
2023/01/13 20:04:26;;;;;;;;;;;9.30;99.90;;;;;;2615364;54;19945;-63
2023/01/13 20:06:55;;;;;;;;;;;9.30;99.90;;;;;;2612612;54;19973;-61
2023/01/13 20:09:25;;;;;;;;;;;9.30;99.90;;;;;;2615240;31;20495;-60
2023/01/13 20:11:55;;;;;;;;;;;9.30;99.90;;;;;;2616484;47;19969;-63
2023/01/13 20:14:25;;;;;;;;;;;9.30;99.90;;;;;;2616643;54;20030;-63
2023/01/13 20:16:57;;;;;;;;;;;9.30;99.90;;;;;;2617398;54;19938;-61
2023/01/13 20:19:27;;;;;;;;;;;9.30;99.90;;;;;;2614814;54;19946;-63
2023/01/13 20:21:57;;;;;;;;;;;9.30;99.90;;;;;;2613496;47;19951;-63
2023/01/13 20:24:27;;;;;;;;;;;9.20;99.90;;;;;;2615010;54;19946;-62
2023/01/13 20:26:57;;;;;;;;;;;9.20;99.90;;;;;;2614789;47;19973;-61
2023/01/13 20:29:26;;;;;;;;;;;9.20;99.90;;;;;;2615502;54;19958;-62
2023/01/13 20:31:59;;;;;;;;;;;9.20;99.90;;;;;;2615023;47;19954;-63
2023/01/13 20:34:29;;;;;;;;;;;9.20;99.90;;;;;;2614156;47;20497;-63
2023/01/13 20:36:59;;;;;;;;;;;9.20;99.90;;;;;;2615797;54;19950;-62
2023/01/13 20:39:29;;;;;;;;;;;9.10;99.90;;;;;;2617487;39;20366;-63
2023/01/13 20:44:43;;;;;;;;;;;9.20;99.90;;;;;;2615471;47;19969;-63
2023/01/13 20:47:15;;;;;;;;;;;9.20;99.90;;;;;;2616783;47;19953;-63
2023/01/13 20:49:45;;;;;;;;;;;9.20;99.90;;;;;;2618701;54;19939;-63
2023/01/13 20:52:15;;;;;;;;;;;9.20;99.90;;;;;;2616337;47;19973;-63
2023/01/13 20:54:44;;;;;;;;;;;9.20;99.90;;;;;;2615886;54;20026;-63
2023/01/13 20:57:14;;;;;;;;;;;9.20;99.90;;;;;;2616298;54;19942;-62
2023/01/13 20:59:44;;;;;;;;;;;9.20;99.90;;;;;;2615636;54;20077;-60
2023/01/13 21:02:19;;;;;;;;;;;9.40;99.90;;;;;;2615849;47;19950;-62
2023/01/13 21:04:48;;;;;;;;;;;9.10;99.90;;;;;;2615473;47;19947;-64
2023/01/13 21:07:18;;;;;;;;;;;9.10;99.90;;;;;;2616603;47;20055;-62
2023/01/13 21:09:47;;;;;;;;;;;9.10;99.90;;;;;;2618073;54;19943;-62
2023/01/13 21:20:29;;;;;;;;;;;8.90;99.90;;;;;;2618151;54;19946;-62
2023/01/13 21:22:58;;;;;;;;;;;9.00;99.90;;;;;;2617930;39;20744;-62
2023/01/13 21:25:28;;;;;;;;;;;8.90;99.90;;;;;;2617106;47;19972;-64
2023/01/13 21:28:02;;;;;;;;;;;8.90;99.90;;;;;;2617470;46;20001;-63
2023/01/13 21:30:31;;;;;;;;;;;8.90;99.90;;;;;;2621729;47;20467;-62
2023/01/13 21:33:05;;;;;;;;;;;8.90;99.90;;;;;;2619329;54;19954;-62
2023/01/13 21:35:34;;;;;;;;;;;8.90;99.90;;;;;;2617537;54;19947;-62
2023/01/13 21:38:04;;;;;;;;;;;8.90;99.90;;;;;;2617859;47;19994;-63
2023/01/13 21:40:33;;;;;;;;;;;8.90;99.90;;;;;;2617067;47;19949;-62
2023/01/13 21:48:32;;;;;;;;;;;8.80;99.90;;;;;;2616124;47;19951;-61
2023/01/13 21:51:02;;;;;;;;;;;8.80;99.90;;;;;;2617742;46;19975;-62
2023/01/13 21:53:31;;;;;;;;;;;8.80;99.90;;;;;;2617009;54;19954;-62
2023/01/13 21:56:01;;;;;;;;;;;8.80;99.90;;;;;;2616999;47;20634;-62
2023/01/13 21:58:30;;;;;;;;;;;8.80;99.90;;;;;;2617716;54;19979;-62
2023/01/13 22:01:02;;;;;;;;;;;8.90;99.90;;;;;;2616727;47;20452;-62
2023/01/13 22:04:11;;;;;;;;;;;8.90;99.90;;;;;;2618886;54;19942;-63
2023/01/13 22:06:25;;;;;;;;;;;8.90;99.90;;;;;;2617073;47;19939;-63
2023/01/13 22:08:58;;;;;;;;;;;9.00;99.90;;;;;;2617081;47;20067;-64
2023/01/13 22:11:28;;;;;;;;;;;9.00;99.90;;;;;;2617336;47;19954;-63
2023/01/13 22:14:12;;;;;;;;;;;8.90;99.90;;;;;;2616815;47;19985;-62
2023/01/13 22:16:48;;;;;;;;;;;8.90;99.90;;;;;;2616473;47;19978;-61
2023/01/13 22:19:20;;;;;;;;;;;8.90;99.90;;;;;;2615448;54;19950;-61
2023/01/13 22:21:49;;;;;;;;;;;8.90;99.90;;;;;;2615284;47;19978;-61
2023/01/13 22:24:19;;;;;;;;;;;8.90;99.90;;;;;;2615255;54;20075;-61
2023/01/13 22:26:49;;;;;;;;;;;9.00;99.90;;;;;;2615841;47;19994;-62
2023/01/13 22:29:19;;;;;;;;;;;9.00;99.90;;;;;;2615866;54;20488;-62
2023/01/13 22:31:48;;;;;;;;;;;9.00;99.90;;;;;;2615660;39;20529;-61
2023/01/13 22:34:20;;;;;;;;;;;9.00;99.90;;;;;;2615338;47;19954;-63
2023/01/13 22:36:50;;;;;;;;;;;10.30;99.90;;;;;;2616534;54;20455;-63
2023/01/13 22:39:19;;;;;;;;;;;9.00;99.90;;;;;;2615533;47;20034;-63
2023/01/13 22:41:48;;;;;;;;;;;9.00;99.90;;;;;;2616031;54;19955;-63
2023/01/13 22:44:18;;;;;;;;;;;9.10;99.90;;;;;;2616855;31;20450;-63
2023/01/13 22:46:48;;;;;;;;;;;9.10;99.90;;;;;;2616984;54;20439;-64
2023/01/13 22:49:18;;;;;;;;;;;9.00;99.90;;;;;;2617314;54;20001;-63
2023/01/13 22:51:50;;;;;;;;;;;9.00;99.90;;;;;;2616716;54;19943;-62
2023/01/13 22:54:20;;;;;;;;;;;9.00;99.90;;;;;;2615957;47;19982;-63
2023/01/13 22:56:49;;;;;;;;;;;9.00;99.90;;;;;;2619525;47;19983;-62
2023/01/13 22:59:20;;;;;;;;;;;9.00;99.90;;;;;;2619510;54;19957;-64
2023/01/13 23:01:50;;;;;;;;;;;9.00;99.90;;;;;;2614581;47;19946;-64
2023/01/13 23:04:19;;;;;;;;;;;9.00;99.90;;;;;;2614515;47;19958;-64
2023/01/13 23:06:52;;;;;;;;;;;9.00;99.90;;;;;;2616269;54;19954;-64
2023/01/13 23:09:21;;;;;;;;;;;9.00;99.90;;;;;;2616400;54;20475;-63
2023/01/13 23:11:52;;;;;;;;;;;9.00;99.90;;;;;;2616227;54;19954;-62
2023/01/13 23:14:22;;;;;;;;;;;9.00;99.90;;;;;;2616551;54;20490;-64
2023/01/13 23:16:51;;;;;;;;;;;9.00;99.90;;;;;;2614963;47;19943;-64
2023/01/13 23:19:21;;;;;;;;;;;9.00;99.90;;;;;;2614836;46;20033;-64
2023/01/13 23:21:53;;;;;;;;;;;9.00;99.90;;;;;;2615411;54;19946;-63
2023/01/13 23:24:28;;;;;;;;;;;9.00;99.90;;;;;;2615983;39;20355;-64
2023/01/13 23:26:57;;;;;;;;;;;9.00;99.90;;;;;;2616124;46;19947;-63
2023/01/13 23:29:27;;;;;;;;;;;9.00;99.90;;;;;;2615817;47;19962;-65
2023/01/13 23:31:57;;;;;;;;;;;9.00;99.90;;;;;;2616612;46;19950;-63
2023/01/13 23:34:29;;;;;;;;;;;9.00;99.90;;;;;;2619135;54;19953;-63
2023/01/13 23:37:01;;;;;;;;;;;9.00;99.90;;;;;;2617921;47;20451;-63
2023/01/13 23:39:31;;;;;;;;;;;9.00;99.90;;;;;;2617405;54;19934;-62
2023/01/13 23:42:00;;;;;;;;;;;9.00;99.90;;;;;;2616876;54;19938;-62
2023/01/13 23:44:30;;;;;;;;;;;8.90;99.90;;;;;;2616466;54;20075;-63
2023/01/13 23:47:00;;;;;;;;;;;8.90;99.90;;;;;;2617704;54;19946;-62
2023/01/13 23:49:29;;;;;;;;;;;8.80;99.90;;;;;;2614297;54;19984;-63
2023/01/13 23:52:01;;;;;;;;;;;8.80;99.90;;;;;;2615694;54;19943;-62
2023/01/13 23:54:31;;;;;;;;;;;8.90;99.90;;;;;;2615303;54;19995;-61
2023/01/13 23:57:00;;;;;;;;;;;8.90;99.90;;;;;;2616064;39;20482;-62
2023/01/13 23:59:30;;;;;;;;;;;8.90;99.90;;;;;;2615493;54;19976;-61
